createdAt,value
2018-12-06T00:01:13.123Z,15.60
2018-12-06T00:03:40.562Z,14.63
2018-12-06T00:06:08.004Z,15.47
2018-12-06T00:08:35.430Z,15.17
2018-12-06T00:11:02.867Z,16.10
2018-12-06T00:13:30.302Z,14.30
2018-12-06T00:15:59.170Z,16.23
2018-12-06T00:18:26.650Z,15.77
2018-12-06T00:20:54.147Z,15.00
2018-12-06T00:23:21.588Z,15.57
2018-12-06T00:25:49.033Z,16.33
2018-12-06T00:28:16.463Z,14.73
2018-12-06T00:30:43.902Z,15.13
2018-12-06T00:33:11.334Z,14.43
2018-12-06T00:35:38.830Z,14.40
2018-12-06T00:38:06.278Z,15.33
2018-12-06T00:40:33.819Z,14.37
2018-12-06T00:43:01.250Z,14.53
2018-12-06T00:45:28.690Z,13.80
2018-12-06T00:47:56.122Z,14.80
2018-12-06T00:50:23.564Z,15.50
2018-12-06T00:52:51.054Z,14.27
2018-12-06T00:55:18.547Z,14.13
2018-12-06T00:57:45.979Z,14.00
2018-12-06T01:00:14.032Z,14.00
2018-12-06T01:02:41.532Z,13.07
2018-12-06T01:05:09.019Z,13.43
2018-12-06T01:07:36.522Z,13.63
2018-12-06T01:10:04.462Z,13.30
2018-12-06T01:12:31.903Z,13.63
2018-12-06T01:14:59.395Z,14.30
2018-12-06T01:17:26.832Z,15.50
2018-12-06T01:19:54.263Z,16.80
2018-12-06T01:22:21.711Z,16.33
2018-12-06T01:24:49.156Z,16.60
2018-12-06T01:27:16.591Z,16.00
2018-12-06T01:29:44.038Z,16.40
2018-12-06T01:32:11.470Z,16.23
2018-12-06T01:34:38.915Z,16.43
2018-12-06T01:37:06.403Z,15.43
2018-12-06T01:39:33.840Z,14.23
2018-12-06T01:42:01.275Z,15.20
2018-12-06T01:44:28.725Z,14.50
2018-12-06T01:46:56.155Z,16.93
2018-12-06T01:49:23.602Z,14.63
2018-12-06T01:51:51.036Z,14.37
2018-12-06T01:54:18.479Z,15.70
2018-12-06T01:56:45.906Z,15.10
2018-12-06T01:59:13.358Z,15.70
2018-12-06T02:01:40.856Z,14.17
2018-12-06T02:04:08.300Z,14.30
2018-12-06T02:06:35.728Z,13.97
2018-12-06T02:09:04.682Z,14.80
2018-12-06T02:11:32.114Z,14.00
2018-12-06T02:13:59.599Z,14.63
2018-12-06T02:16:27.044Z,12.97
2018-12-06T02:18:54.480Z,14.20
2018-12-06T02:21:21.976Z,16.27
2018-12-06T02:23:49.412Z,14.10
2018-12-06T02:26:16.861Z,13.77
2018-12-06T02:28:44.451Z,14.23
2018-12-06T02:31:11.902Z,14.73
2018-12-06T02:33:39.336Z,14.00
2018-12-06T02:36:06.773Z,13.13
2018-12-06T02:38:34.299Z,13.47
2018-12-06T02:41:01.752Z,13.53
2018-12-06T02:43:29.262Z,12.70
2018-12-06T02:45:56.700Z,12.43
2018-12-06T02:48:24.153Z,12.50
2018-12-06T02:50:51.584Z,13.57
2018-12-06T02:53:19.080Z,14.10
2018-12-06T02:55:46.524Z,12.70
2018-12-06T02:58:13.958Z,13.90
2018-12-06T03:00:41.397Z,13.37
2018-12-06T03:03:08.831Z,14.33
2018-12-06T03:05:36.275Z,13.63
2018-12-06T03:08:03.707Z,14.47
2018-12-06T03:10:31.204Z,13.37
2018-12-06T03:12:58.648Z,13.50
2018-12-06T03:15:26.171Z,13.93
2018-12-06T03:17:53.613Z,13.17
2018-12-06T03:20:21.046Z,14.27
2018-12-06T03:22:48.497Z,13.70
2018-12-06T03:25:16.027Z,13.50
2018-12-06T03:27:43.487Z,13.77
2018-12-06T03:30:11.011Z,14.03
2018-12-06T03:32:38.559Z,14.20
2018-12-06T03:35:06.396Z,14.00
2018-12-06T03:37:33.937Z,14.83
2018-12-06T03:40:01.387Z,14.20
2018-12-06T03:42:28.904Z,12.83
2018-12-06T03:44:56.349Z,12.23
2018-12-06T03:47:23.795Z,13.03
2018-12-06T03:49:51.248Z,12.70
2018-12-06T03:52:18.691Z,11.97
2018-12-06T03:54:46.135Z,12.80
2018-12-06T03:57:13.572Z,12.60
2018-12-06T03:59:41.016Z,11.30
2018-12-06T04:02:08.448Z,11.03
2018-12-06T04:04:35.890Z,10.97
2018-12-06T04:07:03.327Z,11.63
2018-12-06T04:09:30.763Z,11.10
2018-12-06T04:11:58.201Z,11.03
2018-12-06T04:14:25.639Z,10.73
2018-12-06T04:16:53.136Z,10.47
2018-12-06T04:19:20.639Z,9.37
2018-12-06T04:21:48.083Z,7.87
2018-12-06T04:24:15.515Z,8.83
2018-12-06T04:26:42.961Z,8.00
2018-12-06T04:29:10.399Z,9.07
2018-12-06T04:31:37.889Z,6.90
2018-12-06T04:34:05.412Z,6.17
2018-12-06T04:36:32.840Z,7.27
2018-12-06T04:39:00.327Z,8.53
2018-12-06T04:41:27.844Z,6.70
2018-12-06T04:43:55.283Z,6.50
2018-12-06T04:46:22.722Z,7.27
2018-12-06T04:48:50.311Z,6.73
2018-12-06T04:51:17.809Z,7.20
2018-12-06T04:53:45.239Z,8.10
2018-12-06T04:56:12.687Z,9.20
2018-12-06T04:58:40.220Z,9.03
2018-12-06T05:01:07.651Z,7.63
2018-12-06T05:03:35.085Z,7.40
2018-12-06T05:06:02.651Z,6.40
2018-12-06T05:08:30.081Z,6.90
2018-12-06T05:10:57.510Z,6.27
2018-12-06T05:13:24.943Z,6.03
2018-12-06T05:15:52.375Z,6.57
2018-12-06T05:18:19.810Z,6.53
2018-12-06T05:20:47.250Z,5.83
2018-12-06T05:23:14.679Z,6.17
2018-12-06T05:25:42.107Z,6.03
2018-12-06T05:28:09.539Z,5.97
2018-12-06T05:30:36.974Z,5.90
2018-12-06T05:33:04.464Z,5.87
2018-12-06T05:35:31.904Z,6.20
2018-12-06T05:37:59.323Z,6.30
2018-12-06T05:40:26.816Z,6.73
2018-12-06T05:42:54.246Z,7.10
2018-12-06T05:45:21.688Z,6.80
2018-12-06T05:47:49.122Z,7.13
2018-12-06T05:50:16.551Z,6.47
2018-12-06T05:52:43.992Z,6.80
2018-12-06T05:55:11.427Z,6.40
2018-12-06T05:57:38.862Z,6.87
2018-12-06T06:00:07.356Z,7.03
2018-12-06T06:02:34.795Z,5.63
2018-12-06T06:05:02.214Z,6.00
2018-12-06T06:07:29.647Z,6.47
2018-12-06T06:09:57.093Z,7.10
2018-12-06T06:12:24.523Z,6.43
2018-12-06T06:14:51.963Z,5.93
2018-12-06T06:17:19.457Z,6.80
2018-12-06T06:19:46.883Z,7.20
2018-12-06T06:22:14.325Z,8.67
2018-12-06T06:24:41.764Z,7.40
2018-12-06T06:27:09.259Z,6.73
2018-12-06T06:29:36.698Z,6.43
2018-12-06T06:32:04.402Z,7.00
2018-12-06T06:34:31.838Z,7.33
2018-12-06T06:36:59.273Z,6.27
2018-12-06T06:39:26.702Z,6.90
2018-12-06T06:41:54.130Z,7.30
2018-12-06T06:44:21.571Z,6.67
2018-12-06T06:46:49.006Z,6.67
2018-12-06T06:49:16.447Z,6.67
2018-12-06T06:51:43.880Z,7.37
2018-12-06T06:54:11.322Z,7.90
2018-12-06T06:56:38.755Z,8.40
2018-12-06T06:59:06.195Z,8.97
2018-12-06T07:01:33.639Z,11.33
2018-12-06T07:04:01.126Z,9.37
2018-12-06T07:06:28.550Z,9.40
2018-12-06T07:08:56.012Z,8.20
2018-12-06T07:11:23.446Z,8.37
2018-12-06T07:13:50.872Z,8.10
2018-12-06T07:16:18.365Z,9.07
2018-12-06T07:18:45.846Z,8.47
2018-12-06T07:21:13.284Z,7.50
2018-12-06T07:23:40.819Z,7.23
2018-12-06T07:26:08.459Z,7.40
2018-12-06T07:28:35.890Z,6.63
2018-12-06T07:31:03.381Z,6.70
2018-12-06T07:33:30.810Z,6.53
2018-12-06T07:35:58.242Z,6.67
2018-12-06T07:38:25.667Z,6.73
2018-12-06T07:40:53.107Z,5.80
2018-12-06T07:43:20.542Z,5.00
2018-12-06T07:45:48.037Z,5.27
2018-12-06T07:48:15.468Z,5.03
2018-12-06T07:50:42.898Z,4.97
2018-12-06T07:53:10.331Z,4.70
2018-12-06T07:55:37.756Z,4.60
2018-12-06T07:58:05.192Z,4.37
2018-12-06T08:00:32.623Z,4.43
2018-12-06T08:03:00.062Z,4.47
2018-12-06T08:05:27.492Z,4.83
2018-12-06T08:07:55.016Z,4.73
2018-12-06T08:10:22.434Z,4.40
2018-12-06T08:12:49.870Z,4.93
2018-12-06T08:15:17.305Z,4.63
2018-12-06T08:17:44.738Z,4.67
2018-12-06T08:20:12.172Z,3.80
2018-12-06T08:22:39.612Z,4.30
2018-12-06T08:25:07.053Z,4.67
2018-12-06T08:27:34.580Z,4.13
2018-12-06T08:30:02.020Z,3.93
2018-12-06T08:32:29.450Z,4.00
2018-12-06T08:34:56.878Z,4.00
2018-12-06T08:37:24.315Z,4.13
2018-12-06T08:39:51.751Z,4.27
2018-12-06T08:42:19.187Z,4.30
2018-12-06T08:44:46.627Z,4.90
2018-12-06T08:47:14.055Z,4.40
2018-12-06T08:49:41.493Z,4.73
2018-12-06T08:52:08.923Z,5.00
2018-12-06T08:54:36.359Z,5.30
2018-12-06T08:57:03.842Z,4.13
2018-12-06T08:59:31.279Z,4.17
2018-12-06T09:01:58.703Z,3.73
2018-12-06T09:04:26.139Z,3.60
2018-12-06T09:06:53.575Z,4.80
2018-12-06T09:09:21.005Z,5.03
2018-12-06T09:11:48.435Z,4.90
2018-12-06T09:14:15.868Z,4.60
2018-12-06T09:16:43.298Z,4.10
2018-12-06T09:19:10.746Z,3.67
2018-12-06T09:22:06.375Z,3.77
2018-12-06T09:24:33.919Z,3.80
2018-12-06T09:27:01.352Z,3.30
2018-12-06T09:29:28.782Z,3.17
2018-12-06T09:31:56.229Z,2.87
2018-12-06T09:34:23.656Z,3.07
2018-12-06T09:36:51.099Z,2.93
2018-12-06T09:39:18.523Z,3.60
2018-12-06T09:41:45.970Z,3.30
2018-12-06T09:44:13.395Z,3.20
2018-12-06T09:46:40.836Z,3.13
2018-12-06T09:49:08.262Z,3.37
2018-12-06T09:51:35.760Z,3.20
2018-12-06T09:54:03.292Z,3.30
2018-12-06T09:56:30.835Z,3.27
2018-12-06T09:58:58.324Z,3.40
2018-12-06T10:01:25.773Z,3.60
2018-12-06T10:03:53.194Z,3.47
2018-12-06T10:06:20.748Z,3.73
2018-12-06T10:08:48.206Z,3.57
2018-12-06T10:11:15.643Z,3.97
2018-12-06T10:13:43.111Z,3.83
2018-12-06T10:16:10.539Z,3.93
2018-12-06T10:18:37.977Z,3.90
2018-12-06T10:21:05.404Z,3.57
2018-12-06T10:23:32.839Z,3.60
2018-12-06T10:26:00.278Z,3.93
2018-12-06T10:28:27.722Z,3.73
2018-12-06T10:30:55.150Z,3.97
2018-12-06T10:33:22.578Z,3.90
2018-12-06T10:35:50.019Z,3.90
2018-12-06T10:38:17.459Z,4.20
2018-12-06T10:40:44.891Z,4.33
2018-12-06T10:43:12.392Z,4.00
2018-12-06T10:45:39.815Z,4.20
2018-12-06T10:48:07.256Z,4.10
2018-12-06T10:50:34.692Z,4.10
2018-12-06T10:53:02.132Z,4.13
2018-12-06T10:55:29.555Z,4.60
2018-12-06T10:57:57.002Z,5.23
2018-12-06T11:00:30.008Z,4.80
2018-12-06T11:02:59.394Z,5.23
2018-12-06T11:05:26.836Z,4.90
2018-12-06T11:07:54.263Z,5.20
2018-12-06T11:10:21.727Z,4.87
2018-12-06T11:12:49.166Z,7.73
2018-12-06T11:15:16.607Z,5.57
2018-12-06T11:17:44.039Z,4.93
2018-12-06T11:20:11.483Z,6.90
2018-12-06T11:22:38.912Z,5.33
2018-12-06T11:25:06.462Z,5.20
2018-12-06T11:27:33.907Z,4.80
2018-12-06T11:30:01.340Z,5.37
2018-12-06T11:32:28.782Z,5.00
2018-12-06T11:34:56.221Z,5.50
2018-12-06T11:37:23.656Z,4.83
2018-12-06T11:39:51.091Z,4.63
2018-12-06T11:42:19.057Z,9.10
2018-12-06T11:44:46.663Z,5.07
2018-12-06T11:47:14.150Z,4.20
2018-12-06T11:49:41.596Z,5.10
2018-12-06T11:52:09.651Z,4.87
2018-12-06T11:54:37.086Z,4.47
2018-12-06T11:57:04.521Z,4.40
2018-12-06T11:59:31.965Z,4.20
2018-12-06T12:01:59.543Z,4.23
2018-12-06T12:04:27.010Z,4.90
2018-12-06T12:06:54.567Z,4.50
2018-12-06T12:09:22.048Z,4.20
2018-12-06T12:11:49.484Z,4.03
2018-12-06T12:14:17.875Z,4.40
2018-12-06T12:16:45.360Z,4.37
2018-12-06T12:19:12.890Z,3.90
2018-12-06T12:21:40.338Z,4.60
2018-12-06T12:24:07.765Z,4.07
2018-12-06T12:26:35.208Z,3.83
2018-12-06T12:29:02.643Z,5.10
2018-12-06T12:31:30.122Z,4.43
2018-12-06T12:33:57.555Z,3.70
2018-12-06T12:36:24.991Z,3.27
2018-12-06T12:38:52.420Z,4.03
2018-12-06T12:41:19.878Z,3.50
2018-12-06T12:43:47.450Z,3.53
2018-12-06T12:46:14.883Z,3.37
2018-12-06T12:48:42.354Z,3.23
2018-12-06T12:51:09.788Z,2.90
2018-12-06T12:53:37.231Z,2.73
2018-12-06T12:56:04.667Z,3.00
2018-12-06T12:58:32.107Z,3.87
2018-12-06T13:00:59.547Z,3.00
2018-12-06T13:03:26.983Z,2.70
2018-12-06T13:05:54.422Z,2.70
2018-12-06T13:08:21.861Z,2.30
2018-12-06T13:10:49.303Z,2.23
2018-12-06T13:13:16.736Z,3.60
2018-12-06T13:15:44.248Z,2.50
2018-12-06T13:18:11.682Z,3.83
2018-12-06T13:20:39.123Z,2.60
2018-12-06T13:23:06.620Z,2.03
2018-12-06T13:25:34.102Z,2.60
2018-12-06T13:28:01.547Z,2.33
2018-12-06T13:30:29.126Z,2.40
2018-12-06T13:32:56.622Z,2.10
2018-12-06T13:35:24.172Z,2.90
2018-12-06T13:37:51.590Z,2.73
2018-12-06T13:40:19.095Z,2.33
2018-12-06T13:42:46.527Z,2.70
2018-12-06T13:45:13.963Z,2.10
2018-12-06T13:47:41.394Z,2.27
2018-12-06T13:50:08.839Z,2.20
2018-12-06T13:52:36.276Z,2.23
2018-12-06T13:55:04.974Z,2.20
2018-12-06T13:57:32.416Z,2.23
2018-12-06T13:59:59.877Z,2.30
2018-12-06T14:02:27.306Z,2.70
2018-12-06T14:04:54.743Z,2.10
2018-12-06T14:07:22.171Z,2.70
2018-12-06T14:09:49.611Z,2.60
2018-12-06T14:12:17.039Z,2.67
2018-12-06T14:14:44.482Z,2.40
2018-12-06T14:17:11.919Z,2.50
2018-12-06T14:19:39.354Z,2.40
2018-12-06T14:22:06.787Z,2.13
2018-12-06T14:24:34.231Z,2.20
2018-12-06T14:27:01.682Z,2.30
2018-12-06T14:29:29.207Z,2.20
2018-12-06T14:31:56.667Z,2.23
2018-12-06T14:34:24.227Z,2.13
2018-12-06T14:37:01.716Z,1.70
2018-12-06T14:39:21.115Z,1.77
2018-12-06T14:41:48.559Z,2.30
2018-12-06T14:44:15.994Z,1.70
2018-12-06T14:46:43.453Z,2.20
2018-12-06T14:49:10.928Z,2.07
2018-12-06T14:51:38.364Z,2.33
2018-12-06T14:54:05.809Z,2.20
2018-12-06T14:56:33.250Z,2.20
2018-12-06T14:59:00.686Z,2.30
2018-12-06T15:01:28.126Z,2.00
2018-12-06T15:03:55.566Z,2.10
2018-12-06T15:06:23.011Z,2.20
2018-12-06T15:08:50.438Z,2.30
2018-12-06T15:11:17.879Z,2.40
2018-12-06T15:13:45.323Z,2.50
2018-12-06T15:16:12.755Z,2.40
2018-12-06T15:18:40.242Z,2.03
2018-12-06T15:21:07.675Z,2.27
2018-12-06T15:23:35.203Z,2.20
2018-12-06T15:26:02.643Z,2.07
2018-12-06T15:28:30.094Z,2.27
2018-12-06T15:30:57.530Z,2.57
2018-12-06T15:33:24.969Z,2.63
2018-12-06T15:35:52.423Z,2.63
2018-12-06T15:38:19.867Z,2.67
2018-12-06T15:40:47.347Z,2.57
2018-12-06T15:43:14.796Z,2.60
2018-12-06T15:45:42.288Z,2.30
2018-12-06T15:48:09.719Z,2.40
2018-12-06T15:50:37.215Z,3.00
2018-12-06T15:53:04.647Z,3.00
2018-12-06T15:55:32.134Z,2.60
2018-12-06T15:57:59.580Z,2.80
2018-12-06T16:00:27.022Z,2.67
2018-12-06T16:02:54.462Z,2.70
2018-12-06T16:05:21.898Z,2.60
2018-12-06T16:07:49.343Z,2.77
2018-12-06T16:10:16.775Z,2.67
2018-12-06T16:12:44.214Z,2.57
2018-12-06T16:15:11.700Z,2.60
2018-12-06T16:17:39.151Z,7.43
2018-12-06T16:20:07.805Z,8.33
2018-12-06T16:22:35.222Z,2.60
2018-12-06T16:25:02.857Z,8.90
2018-12-06T16:27:30.309Z,10.67
2018-12-06T16:29:57.739Z,3.50
2018-12-06T16:32:25.162Z,5.93
2018-12-06T16:34:52.596Z,7.50
2018-12-06T16:37:20.031Z,5.63
2018-12-06T16:39:47.460Z,4.83
2018-12-06T16:42:14.904Z,5.77
2018-12-06T16:44:42.345Z,6.53
2018-12-06T16:47:09.783Z,4.13
2018-12-06T16:49:37.262Z,3.70
2018-12-06T16:52:04.755Z,2.70
2018-12-06T16:54:32.190Z,2.80
2018-12-06T16:56:59.629Z,3.90
2018-12-06T16:59:27.063Z,2.57
2018-12-06T17:01:54.542Z,3.10
2018-12-06T17:04:21.978Z,2.63
2018-12-06T17:06:49.415Z,4.90
2018-12-06T17:09:16.843Z,4.50
2018-12-06T17:11:44.303Z,2.50
2018-12-06T17:14:11.731Z,2.13
2018-12-06T17:16:39.162Z,2.00
2018-12-06T17:19:06.596Z,2.00
2018-12-06T17:21:34.029Z,1.87
2018-12-06T17:24:01.451Z,2.13
2018-12-06T17:26:28.884Z,2.57
2018-12-06T17:28:56.319Z,2.10
2018-12-06T17:31:23.803Z,2.10
2018-12-06T17:33:51.245Z,7.00
2018-12-06T17:36:18.679Z,2.03
2018-12-06T17:38:46.117Z,2.30
2018-12-06T17:41:13.549Z,2.93
2018-12-06T17:43:40.987Z,1.70
2018-12-06T17:46:08.426Z,4.23
2018-12-06T17:48:35.865Z,8.70
2018-12-06T17:51:03.298Z,5.80
2018-12-06T17:53:30.740Z,3.40
2018-12-06T17:55:58.174Z,2.33
2018-12-06T17:58:25.607Z,2.70
2018-12-06T18:00:53.044Z,4.20
2018-12-06T18:03:20.475Z,4.07
2018-12-06T18:05:48.027Z,8.50
2018-12-06T18:08:15.466Z,2.23
2018-12-06T18:10:43.115Z,3.50
2018-12-06T18:13:10.555Z,2.20
2018-12-06T18:15:38.330Z,2.20
2018-12-06T18:18:05.769Z,2.00
2018-12-06T18:20:33.190Z,2.20
2018-12-06T18:23:00.675Z,2.07
2018-12-06T18:25:28.111Z,1.90
2018-12-06T18:27:55.535Z,2.87
2018-12-06T18:30:23.087Z,3.40
2018-12-06T18:32:50.512Z,3.33
2018-12-06T18:35:17.956Z,2.33
2018-12-06T18:37:45.382Z,2.80
2018-12-06T18:40:12.819Z,2.33
2018-12-06T18:42:40.256Z,2.27
2018-12-06T18:45:07.791Z,2.60
2018-12-06T18:47:35.230Z,2.40
2018-12-06T18:50:02.655Z,4.33
2018-12-06T18:52:30.088Z,5.40
2018-12-06T18:54:57.537Z,11.57
2018-12-06T18:57:24.970Z,7.33
2018-12-06T18:59:52.399Z,9.83
2018-12-06T19:02:19.834Z,2.67
2018-12-06T19:04:47.275Z,10.27
2018-12-06T19:07:14.712Z,12.90
2018-12-06T19:09:42.151Z,15.07
2018-12-06T19:12:09.596Z,11.13
2018-12-06T19:14:37.091Z,6.87
2018-12-06T19:17:04.580Z,7.73
2018-12-06T19:19:32.021Z,6.60
2018-12-06T19:21:59.454Z,2.90
2018-12-06T19:24:26.883Z,11.47
2018-12-06T19:26:54.337Z,4.17
2018-12-06T19:29:21.765Z,3.10
2018-12-06T19:31:49.196Z,3.57
2018-12-06T19:34:16.734Z,3.17
2018-12-06T19:36:44.171Z,3.73
2018-12-06T19:39:11.671Z,3.50
2018-12-06T19:41:39.208Z,2.90
2018-12-06T19:44:06.682Z,3.00
2018-12-06T19:46:34.113Z,4.37
2018-12-06T19:49:01.570Z,3.20
2018-12-06T19:51:28.987Z,2.90
2018-12-06T19:53:56.423Z,3.37
2018-12-06T19:56:23.877Z,2.87
2018-12-06T19:58:51.307Z,2.93
2018-12-06T20:01:18.743Z,2.87
2018-12-06T20:03:46.173Z,3.30
2018-12-06T20:06:13.658Z,3.60
2018-12-06T20:08:41.090Z,4.93
2018-12-06T20:11:08.530Z,3.37
2018-12-06T20:13:36.059Z,3.60
2018-12-06T20:16:03.551Z,2.73
2018-12-06T20:18:31.035Z,3.10
2018-12-06T20:20:58.459Z,7.17
2018-12-06T20:23:25.901Z,3.20
2018-12-06T20:25:53.391Z,16.13
2018-12-06T20:28:26.505Z,2.90
2018-12-06T20:30:50.252Z,5.17
2018-12-06T20:33:17.684Z,23.90
2018-12-06T20:35:45.146Z,18.00
2018-12-06T20:38:12.580Z,19.83
2018-12-06T20:40:40.023Z,57.03
2018-12-06T20:43:07.516Z,58.33
2018-12-06T20:45:34.972Z,21.63
2018-12-06T20:48:02.417Z,36.07
2018-12-06T20:50:29.923Z,120.33
2018-12-06T20:52:57.350Z,80.57
2018-12-06T20:55:24.788Z,42.63
2018-12-06T20:57:52.232Z,13.60
2018-12-06T21:00:19.718Z,47.33
2018-12-06T21:02:47.157Z,8.73
2018-12-06T21:05:14.599Z,1.97
2018-12-06T21:07:42.047Z,2.43
2018-12-06T21:10:09.530Z,6.33
2018-12-06T21:12:37.029Z,60.13
2018-12-06T21:15:05.272Z,2.70
2018-12-06T21:17:32.706Z,2.17
2018-12-06T21:20:00.131Z,2.33
2018-12-06T21:22:27.571Z,1.47
2018-12-06T21:24:54.999Z,2.10
2018-12-06T21:27:22.435Z,1.97
2018-12-06T21:29:49.863Z,1.80
2018-12-06T21:32:17.313Z,1.80
2018-12-06T21:34:44.848Z,1.53
2018-12-06T21:37:12.282Z,1.70
2018-12-06T21:39:39.715Z,1.80
2018-12-06T21:42:07.203Z,2.00
2018-12-06T21:44:34.637Z,1.70
2018-12-06T21:47:02.067Z,1.60
2018-12-06T21:49:29.502Z,1.63
2018-12-06T21:51:56.937Z,1.73
2018-12-06T21:54:24.364Z,1.63
2018-12-06T21:56:51.854Z,1.20
2018-12-06T21:59:19.283Z,1.60
2018-12-06T22:01:46.714Z,1.40
2018-12-06T22:04:14.147Z,1.40
2018-12-06T22:06:41.583Z,1.43
2018-12-06T22:09:09.015Z,1.60
2018-12-06T22:11:36.499Z,1.60
2018-12-06T22:14:03.995Z,1.40
2018-12-06T22:16:31.423Z,1.50
2018-12-06T22:18:58.861Z,1.40
2018-12-06T22:21:26.307Z,1.50
2018-12-06T22:23:53.751Z,1.33
2018-12-06T22:26:21.198Z,1.47
2018-12-06T22:28:48.627Z,1.60
2018-12-06T22:31:16.063Z,1.33
2018-12-06T22:33:43.492Z,1.57
2018-12-06T22:36:10.930Z,1.30
2018-12-06T22:38:38.369Z,1.37
2018-12-06T22:41:05.855Z,1.40
2018-12-06T22:43:33.384Z,1.30
2018-12-06T22:46:00.927Z,1.20
2018-12-06T22:48:28.426Z,1.40
2018-12-06T22:50:56.008Z,1.40
2018-12-06T22:53:23.442Z,1.40
2018-12-06T22:55:50.939Z,1.40
2018-12-06T22:58:18.375Z,1.40
2018-12-06T23:00:49.741Z,1.60
2018-12-06T23:03:17.167Z,1.30
2018-12-06T23:05:44.603Z,1.13
2018-12-06T23:08:12.039Z,1.27
2018-12-06T23:10:39.474Z,1.40
2018-12-06T23:13:06.920Z,1.30
2018-12-06T23:15:34.360Z,1.30
2018-12-06T23:18:01.815Z,1.47
2018-12-06T23:20:29.252Z,1.30
2018-12-06T23:22:56.774Z,1.20
2018-12-06T23:25:24.240Z,1.40
2018-12-06T23:27:51.739Z,1.30
2018-12-06T23:30:19.226Z,1.10
2018-12-06T23:32:46.671Z,1.27
2018-12-06T23:35:14.172Z,1.37
2018-12-06T23:37:41.603Z,1.30
2018-12-06T23:40:09.091Z,1.30
2018-12-06T23:42:36.518Z,1.40
2018-12-06T23:45:05.479Z,1.43
2018-12-06T23:47:32.913Z,1.60
2018-12-06T23:50:00.360Z,1.50
2018-12-06T23:52:27.800Z,1.50
2018-12-06T23:54:55.293Z,1.57
2018-12-06T23:57:22.721Z,1.40
2018-12-06T23:59:50.165Z,1.40
